Time;durP1;ratioP1;P1;durP2;ratioP2;P2;SDS_P1;SDS_P2;PMS_P1;PMS_P2;Temp;Humidity;BMP_temperature;BMP_pressure;BME280_temperature;BME280_humidity;BME280_pressure;Samples;Min_cycle;Max_cycle;Signal;HPM_P1;HPM_P2
2022/01/17 00:00:54;;;;;;;;;;;;;;;-3.95;77.86;96914.66;5113771;28;19924;-66
2022/01/17 00:03:24;;;;;;;;;;;;;;;-3.88;77.95;96899.03;5113856;28;19931;-66
2022/01/17 00:05:51;;;;;;;;;;;;;;;-3.89;78.14;96931.25;5113480;28;20301;-66
2022/01/17 00:08:17;;;;;;;;;;;;;;;-3.90;77.80;96924.56;5113655;28;19924;-66
2022/01/17 00:10:44;;;;;;;;;;;;;;;-3.87;77.70;96916.75;5113652;28;20370;-67
2022/01/17 00:13:14;;;;;;;;;;;;;;;-3.91;76.94;96933.06;5113328;28;20374;-66
2022/01/17 00:15:48;;;;;;;;;;;;;;;-3.87;78.23;96933.72;5113627;28;20293;-65
2022/01/17 00:18:53;;;;;;;;;;;;;;;-3.85;78.64;96927.66;5113332;28;19930;-67
2022/01/17 00:21:18;;;;;;;;;;;;;;;-3.88;78.22;96927.78;5113280;28;19924;-67
2022/01/17 00:23:45;;;;;;;;;;;;;;;-3.98;80.47;96919.91;5113484;28;19923;-67
2022/01/17 00:26:12;;;;;;;;;;;;;;;-4.07;81.07;96930.59;5113774;28;19931;-67
2022/01/17 00:28:38;;;;;;;;;;;;;;;-4.05;81.14;96941.47;5113415;28;19936;-64
2022/01/17 00:31:05;;;;;;;;;;;;;;;-4.03;82.32;96942.22;5107512;22;19924;-70
2022/01/17 00:33:34;;;;;;;;;;;;;;;-4.08;83.24;96941.66;5092898;28;19932;-71
2022/01/17 00:36:00;;;;;;;;;;;;;;;-4.16;83.93;96970.00;5092875;28;19931;-71
2022/01/17 00:38:27;;;;;;;;;;;;;;;-4.22;85.03;96946.69;5092930;28;19931;-71
2022/01/17 00:40:54;;;;;;;;;;;;;;;-4.34;86.92;96937.22;5092778;28;20409;-74
2022/01/17 00:43:21;;;;;;;;;;;;;;;-4.44;87.45;96949.63;5092701;28;20290;-72
2022/01/17 00:45:47;;;;;;;;;;;;;;;-4.50;88.11;96932.97;5092856;28;19950;-73
2022/01/17 00:48:14;;;;;;;;;;;;;;;-4.50;88.61;96929.63;5092884;28;19924;-73
2022/01/17 00:50:42;;;;;;;;;;;;;;;-4.54;89.16;96938.34;5092873;28;19931;-72
2022/01/17 00:53:09;;;;;;;;;;;;;;;-4.50;88.90;96925.38;5092994;28;19924;-73
2022/01/17 00:55:36;;;;;;;;;;;;;;;-4.52;89.56;96923.81;5092604;28;19924;-73
2022/01/17 00:58:03;;;;;;;;;;;;;;;-4.60;90.27;96921.69;5092967;28;19928;-73
2022/01/17 01:00:30;;;;;;;;;;;;;;;-4.53;89.45;96934.88;5092919;28;20390;-71
2022/01/17 01:02:56;;;;;;;;;;;;;;;-4.56;90.61;96910.50;5093645;28;19924;-72
2022/01/17 01:05:23;;;;;;;;;;;;;;;-4.68;92.06;96922.13;5096795;28;20289;-71
2022/01/17 01:07:53;;;;;;;;;;;;;;;-4.74;92.98;96926.72;5096748;28;19924;-72
2022/01/17 01:10:21;;;;;;;;;;;;;;;-4.68;93.60;96921.31;5096634;28;19931;-71
2022/01/17 01:12:49;;;;;;;;;;;;;;;-4.64;94.08;96925.31;5096868;28;19929;-71
2022/01/17 01:15:19;;;;;;;;;;;;;;;-4.73;95.30;96924.09;5096876;28;19924;-72
2022/01/17 01:17:51;;;;;;;;;;;;;;;-4.75;96.77;96933.53;5096446;28;19943;-71
2022/01/17 01:20:29;;;;;;;;;;;;;;;-4.82;97.22;96924.59;5096534;28;20339;-71
2022/01/17 01:28:26;;;;;;;;;;;;;;;-4.89;100.00;96938.50;5096589;28;20004;-73
2022/01/17 01:30:55;;;;;;;;;;;;;;;-4.97;99.24;96948.25;5096800;28;20422;-73
2022/01/17 01:33:27;;;;;;;;;;;;;;;-4.94;100.00;96933.69;5096243;28;19924;-72
2022/01/17 01:36:00;;;;;;;;;;;;;;;-5.02;99.63;96945.94;5096662;28;20018;-72
2022/01/17 01:38:28;;;;;;;;;;;;;;;-4.97;99.27;96951.59;5096170;28;19997;-72
2022/01/17 01:40:54;;;;;;;;;;;;;;;-4.96;100.00;96957.47;5096057;28;19924;-72
2022/01/17 01:43:21;;;;;;;;;;;;;;;-5.03;100.00;96980.63;5096255;28;19924;-70
2022/01/17 01:45:48;;;;;;;;;;;;;;;-4.96;99.65;96970.16;5096177;28;19924;-73
2022/01/17 01:48:15;;;;;;;;;;;;;;;-5.02;99.35;96983.97;5096200;28;20401;-72
2022/01/17 01:50:41;;;;;;;;;;;;;;;-5.03;99.42;96995.84;5095995;28;19924;-72
2022/01/17 01:53:08;;;;;;;;;;;;;;;-5.04;99.36;96988.31;5095956;28;20358;-72
2022/01/17 01:55:36;;;;;;;;;;;;;;;-5.05;99.41;97007.78;5095975;28;19924;-72
2022/01/17 01:58:03;;;;;;;;;;;;;;;-5.10;100.00;96991.16;5095898;28;19928;-73
2022/01/17 02:00:29;;;;;;;;;;;;;;;-5.05;100.00;97006.97;5095655;28;19931;-71
2022/01/17 02:02:56;;;;;;;;;;;;;;;-5.01;100.00;96998.28;5095775;28;20386;-72
2022/01/17 02:05:23;;;;;;;;;;;;;;;-5.05;100.00;97010.31;5095943;28;19935;-71
2022/01/17 02:07:50;;;;;;;;;;;;;;;-5.14;99.41;96994.75;5095667;28;19931;-73
2022/01/17 02:10:16;;;;;;;;;;;;;;;-5.13;99.38;97017.50;5095593;28;19932;-70
2022/01/17 02:12:45;;;;;;;;;;;;;;;-5.17;98.95;97010.94;5095491;28;19924;-72
2022/01/17 02:15:13;;;;;;;;;;;;;;;-5.13;99.29;97004.00;5094907;28;19931;-72
2022/01/17 02:17:45;;;;;;;;;;;;;;;-5.21;99.67;97026.38;5095771;28;19924;-72
2022/01/17 02:20:17;;;;;;;;;;;;;;;-5.20;100.00;97035.63;5095356;28;19928;-71
2022/01/17 02:22:43;;;;;;;;;;;;;;;-5.24;98.83;97032.44;5095475;28;19924;-72
2022/01/17 02:25:10;;;;;;;;;;;;;;;-5.19;99.03;97040.59;5095349;28;19947;-72
2022/01/17 02:27:37;;;;;;;;;;;;;;;-5.24;99.86;97042.56;5095271;28;19931;-73
2022/01/17 02:30:04;;;;;;;;;;;;;;;-5.37;100.00;97044.06;5106105;22;19924;-66
2022/01/17 02:32:30;;;;;;;;;;;;;;;-5.30;100.00;97063.13;5095102;28;20370;-67
2022/01/17 02:35:11;;;;;;;;;;;;;;;-5.33;100.00;97050.63;5095165;28;19924;-66
2022/01/17 02:37:39;;;;;;;;;;;;;;;-5.22;100.00;97078.78;5095014;28;19931;-66
2022/01/17 02:40:06;;;;;;;;;;;;;;;-5.19;100.00;97060.88;5085612;28;19931;-66
2022/01/17 02:42:33;;;;;;;;;;;;;;;-5.24;100.00;97067.91;5074760;28;19932;-76
2022/01/17 02:45:09;;;;;;;;;;;;;;;-5.27;100.00;97103.53;5074714;28;19931;-71
2022/01/17 02:47:36;;;;;;;;;;;;;;;-5.22;100.00;97093.97;5074746;28;19924;-66
2022/01/17 02:50:03;;;;;;;;;;;;;;;-5.26;100.00;97110.25;5074624;28;19924;-66
2022/01/17 02:52:30;;;;;;;;;;;;;;;-5.24;100.00;97116.06;5074314;28;19924;-66
2022/01/17 02:54:58;;;;;;;;;;;;;;;-5.15;100.00;97125.75;5074733;28;19939;-66
2022/01/17 02:57:25;;;;;;;;;;;;;;;-5.14;99.70;97126.56;5074506;28;20370;-66
2022/01/17 02:59:52;;;;;;;;;;;;;;;-5.20;99.87;97111.66;5074200;28;20415;-66
2022/01/17 03:02:18;;;;;;;;;;;;;;;-5.15;99.56;97140.94;5074577;28;19993;-72
2022/01/17 03:04:45;;;;;;;;;;;;;;;-5.12;99.59;97150.13;5074282;28;20405;-67
2022/01/17 03:07:11;;;;;;;;;;;;;;;-5.08;99.47;97156.69;5074195;28;19943;-67
2022/01/17 03:09:48;;;;;;;;;;;;;;;-5.11;99.49;97126.41;5074498;28;19954;-68
2022/01/17 03:12:16;;;;;;;;;;;;;;;-5.06;99.50;97130.38;5073947;28;19931;-73
2022/01/17 03:14:43;;;;;;;;;;;;;;;-5.10;98.81;97173.69;5074069;28;19924;-66
2022/01/17 03:17:09;;;;;;;;;;;;;;;-5.02;98.79;97184.25;5074048;28;19978;-70
2022/01/17 03:19:36;;;;;;;;;;;;;;;-4.95;99.21;97193.22;5073923;28;20429;-67
2022/01/17 03:22:03;;;;;;;;;;;;;;;-5.03;98.55;97187.69;5073984;28;19925;-69
2022/01/17 03:24:30;;;;;;;;;;;;;;;-5.04;98.78;97204.59;5074140;28;19931;-75
2022/01/17 03:26:56;;;;;;;;;;;;;;;-4.93;98.97;97195.66;5072978;28;19932;-67
2022/01/17 03:29:24;;;;;;;;;;;;;;;-4.95;99.09;97243.91;5085441;22;19916;-72
2022/01/17 03:31:51;;;;;;;;;;;;;;;-4.96;99.49;97251.59;5053945;28;20315;-72
2022/01/17 03:34:17;;;;;;;;;;;;;;;-4.93;99.42;97272.56;5054059;28;19925;-72
2022/01/17 03:36:44;;;;;;;;;;;;;;;-4.95;98.37;97276.06;5054084;28;19925;-72
2022/01/17 03:39:11;;;;;;;;;;;;;;;-4.89;98.16;97294.34;5054999;28;19928;-72
2022/01/17 03:41:38;;;;;;;;;;;;;;;-4.87;97.99;97314.56;5073645;28;20409;-73
2022/01/17 03:44:04;;;;;;;;;;;;;;;-4.94;97.19;97308.13;5073473;28;19924;-72
2022/01/17 03:46:32;;;;;;;;;;;;;;;-4.89;97.04;97359.44;5073416;28;20295;-72
2022/01/17 03:48:59;;;;;;;;;;;;;;;-4.92;96.17;97367.19;5073729;28;19925;-72
2022/01/17 03:51:25;;;;;;;;;;;;;;;-4.91;95.89;97387.41;5073359;28;19924;-72
2022/01/17 03:53:52;;;;;;;;;;;;;;;-4.97;95.35;97394.47;5073316;28;20287;-71
2022/01/17 03:56:19;;;;;;;;;;;;;;;-4.89;95.02;97405.09;5073370;28;19928;-72
2022/01/17 03:58:45;;;;;;;;;;;;;;;-4.91;94.46;97415.28;5073321;28;19925;-72
2022/01/17 04:01:12;;;;;;;;;;;;;;;-4.91;94.72;97437.31;5072950;28;19924;-72
2022/01/17 04:03:40;;;;;;;;;;;;;;;-4.93;93.18;97455.13;5073349;28;19924;-71
2022/01/17 04:06:07;;;;;;;;;;;;;;;-4.93;92.24;97470.34;5072973;28;19924;-72
2022/01/17 04:08:34;;;;;;;;;;;;;;;-4.85;91.11;97487.75;5073195;28;19924;-72
2022/01/17 04:11:01;;;;;;;;;;;;;;;-4.84;89.66;97520.66;5073142;28;19986;-72
2022/01/17 04:13:28;;;;;;;;;;;;;;;-4.85;89.35;97533.41;5073036;28;19925;-72
2022/01/17 04:15:54;;;;;;;;;;;;;;;-4.83;89.11;97544.28;5073441;28;20293;-71
2022/01/17 04:18:23;;;;;;;;;;;;;;;-4.77;87.74;97556.72;5072978;28;19924;-72
2022/01/17 04:20:52;;;;;;;;;;;;;;;-4.76;87.25;97570.22;5072929;28;20417;-71
2022/01/17 04:23:19;;;;;;;;;;;;;;;-4.76;85.84;97591.31;5072663;28;19924;-72
2022/01/17 04:25:46;;;;;;;;;;;;;;;-4.71;85.68;97609.72;5072854;28;19924;-72
2022/01/17 04:28:13;;;;;;;;;;;;;;;-4.79;85.02;97606.69;5073354;28;19947;-72
2022/01/17 04:30:40;;;;;;;;;;;;;;;-4.77;84.61;97619.31;5073042;28;19925;-72
2022/01/17 04:33:07;;;;;;;;;;;;;;;-4.76;84.57;97642.06;5072740;28;19936;-71
2022/01/17 04:35:35;;;;;;;;;;;;;;;-4.79;83.61;97662.50;5072890;28;19924;-71
2022/01/17 04:38:04;;;;;;;;;;;;;;;-4.75;83.34;97660.63;5072394;28;19982;-71
2022/01/17 04:40:35;;;;;;;;;;;;;;;-4.77;81.46;97690.34;5072470;28;19925;-71
2022/01/17 04:43:04;;;;;;;;;;;;;;;-4.75;81.93;97684.31;5072916;28;19924;-71
2022/01/17 04:45:30;;;;;;;;;;;;;;;-4.83;80.92;97706.63;5072309;28;20424;-71
2022/01/17 04:47:57;;;;;;;;;;;;;;;-4.88;81.54;97741.47;5072722;28;19928;-71
2022/01/17 04:50:27;;;;;;;;;;;;;;;-4.88;80.32;97752.47;5071861;28;20120;-71
2022/01/17 04:52:56;;;;;;;;;;;;;;;-4.91;80.28;97761.91;5072469;28;19943;-72
2022/01/17 04:55:24;;;;;;;;;;;;;;;-4.94;79.60;97782.31;5072561;28;19925;-73
2022/01/17 04:57:51;;;;;;;;;;;;;;;-4.99;80.35;97802.78;5072511;28;19940;-75
2022/01/17 05:00:18;;;;;;;;;;;;;;;-5.03;80.09;97794.47;5072397;28;19925;-73
2022/01/17 05:02:45;;;;;;;;;;;;;;;-5.04;80.18;97830.84;5072305;28;20303;-72
2022/01/17 05:05:12;;;;;;;;;;;;;;;-5.07;80.12;97832.69;5072359;28;20268;-73
2022/01/17 05:07:39;;;;;;;;;;;;;;;-5.08;80.31;97836.94;5072279;28;19931;-73
2022/01/17 05:10:07;;;;;;;;;;;;;;;-5.12;79.79;97852.31;5072523;28;20328;-73
2022/01/17 05:12:35;;;;;;;;;;;;;;;-5.17;79.72;97867.69;5072622;28;19928;-73
2022/01/17 05:15:02;;;;;;;;;;;;;;;-5.18;79.09;97886.34;5072312;28;19929;-72
2022/01/17 05:17:56;;;;;;;;;;;;;;;-5.18;79.63;97882.97;5072234;28;20389;-72
2022/01/17 05:20:22;;;;;;;;;;;;;;;-5.21;79.66;97896.59;5072445;28;20011;-72
2022/01/17 05:22:49;;;;;;;;;;;;;;;-5.25;79.43;97921.22;5072152;28;19928;-73
2022/01/17 05:25:16;;;;;;;;;;;;;;;-5.23;79.22;97922.88;5072372;28;19924;-72
2022/01/17 05:27:44;;;;;;;;;;;;;;;-5.29;79.98;97927.28;5071962;28;19932;-73
2022/01/17 05:30:13;;;;;;;;;;;;;;;-5.34;80.19;97951.16;5091533;22;19928;-66
2022/01/17 05:32:39;;;;;;;;;;;;;;;-5.37;80.32;97948.69;5092284;28;19935;-67
2022/01/17 05:35:06;;;;;;;;;;;;;;;-5.40;79.87;97957.25;5092446;28;19947;-66
2022/01/17 05:37:33;;;;;;;;;;;;;;;-5.43;79.88;97980.16;5092371;28;19924;-75
2022/01/17 05:40:00;;;;;;;;;;;;;;;-5.48;80.35;98007.38;5092300;28;19928;-66
2022/01/17 05:42:26;;;;;;;;;;;;;;;-5.51;80.54;98010.00;5092184;28;20386;-67
2022/01/17 05:44:54;;;;;;;;;;;;;;;-5.60;80.35;98023.81;5092101;28;20344;-68
2022/01/17 05:47:21;;;;;;;;;;;;;;;-5.62;80.77;98038.25;5092283;28;19928;-66
2022/01/17 05:49:48;;;;;;;;;;;;;;;-5.64;81.35;98049.31;5092717;28;19924;-66
2022/01/17 05:52:15;;;;;;;;;;;;;;;-5.62;81.02;98075.41;5095913;28;19924;-66
2022/01/17 05:54:42;;;;;;;;;;;;;;;-5.68;80.97;98084.03;5095953;28;19947;-66
2022/01/17 05:57:09;;;;;;;;;;;;;;;-5.71;80.54;98105.22;5095881;28;20409;-66
2022/01/17 05:59:35;;;;;;;;;;;;;;;-5.77;80.48;98115.53;5096076;28;19947;-66
2022/01/17 06:02:04;;;;;;;;;;;;;;;-5.74;79.93;98119.69;5095863;28;19928;-67
2022/01/17 06:04:31;;;;;;;;;;;;;;;-5.76;80.97;98121.44;5095995;28;20381;-67
2022/01/17 06:06:57;;;;;;;;;;;;;;;-5.76;80.10;98126.50;5095997;28;19971;-66
2022/01/17 06:09:24;;;;;;;;;;;;;;;-5.78;79.68;98116.44;5095547;28;19991;-66
2022/01/17 06:11:50;;;;;;;;;;;;;;;-5.81;80.16;98124.09;5095734;28;19927;-65
2022/01/17 06:14:18;;;;;;;;;;;;;;;-5.85;79.73;98135.22;5095447;28;19931;-65
2022/01/17 06:16:45;;;;;;;;;;;;;;;-5.87;80.05;98148.81;5095533;28;19924;-66
2022/01/17 06:19:13;;;;;;;;;;;;;;;-5.88;79.84;98164.84;5095762;28;19924;-65
2022/01/17 06:21:40;;;;;;;;;;;;;;;-5.93;78.64;98188.63;5095598;28;19936;-65
2022/01/17 06:24:09;;;;;;;;;;;;;;;-5.93;78.94;98205.53;5095313;28;19932;-66
2022/01/17 06:26:36;;;;;;;;;;;;;;;-5.97;78.95;98216.63;5095118;28;20374;-65
2022/01/17 06:29:03;;;;;;;;;;;;;;;-6.03;79.64;98242.16;5095435;28;19928;-66
2022/01/17 06:31:30;;;;;;;;;;;;;;;-6.03;79.94;98244.69;5123934;22;19924;-72
2022/01/17 06:33:56;;;;;;;;;;;;;;;-6.05;79.83;98247.25;5115544;28;19924;-72
2022/01/17 06:36:24;;;;;;;;;;;;;;;-6.04;79.52;98276.72;5115504;28;19935;-72
2022/01/17 06:38:51;;;;;;;;;;;;;;;-6.08;80.12;98271.81;5115575;28;19924;-72
2022/01/17 06:41:18;;;;;;;;;;;;;;;-6.09;79.76;98270.13;5115298;28;20293;-72
2022/01/17 06:43:45;;;;;;;;;;;;;;;-6.17;80.39;98270.34;5115313;28;19931;-72
2022/01/17 06:46:12;;;;;;;;;;;;;;;-6.16;80.21;98279.63;5115777;28;19927;-73
2022/01/17 06:48:39;;;;;;;;;;;;;;;-6.21;80.76;98261.19;5113807;28;19928;-71
2022/01/17 06:51:06;;;;;;;;;;;;;;;-6.29;80.57;98275.72;5113747;28;19924;-72
2022/01/17 06:53:34;;;;;;;;;;;;;;;-6.30;80.87;98285.03;5114409;28;19924;-75
2022/01/17 06:56:00;;;;;;;;;;;;;;;-6.31;80.84;98283.38;5115166;28;19924;-76
2022/01/17 06:58:27;;;;;;;;;;;;;;;-6.31;80.81;98308.69;5115058;28;19930;-75
2022/01/17 07:00:55;;;;;;;;;;;;;;;-6.28;80.87;98297.66;5113843;28;19931;-74
2022/01/17 07:03:22;;;;;;;;;;;;;;;-6.37;80.94;98311.34;5114036;28;19923;-72
2022/01/17 07:05:48;;;;;;;;;;;;;;;-6.40;79.77;98319.03;5114813;28;19923;-69
2022/01/17 07:08:15;;;;;;;;;;;;;;;-6.39;79.91;98335.91;5113724;27;20381;-71
2022/01/17 07:10:43;;;;;;;;;;;;;;;-6.41;79.69;98340.97;5114479;28;19924;-71
2022/01/17 07:13:10;;;;;;;;;;;;;;;-6.45;80.07;98344.44;5115025;28;19978;-73
2022/01/17 07:15:36;;;;;;;;;;;;;;;-6.48;80.17;98363.94;5114678;28;19981;-68
2022/01/17 07:18:03;;;;;;;;;;;;;;;-6.55;80.41;98388.56;5111307;28;19939;-69
2022/01/17 07:20:30;;;;;;;;;;;;;;;-6.53;80.96;98388.53;5094126;28;19955;-71
2022/01/17 07:22:56;;;;;;;;;;;;;;;-6.57;80.19;98406.31;5094166;28;19935;-71
2022/01/17 07:25:23;;;;;;;;;;;;;;;-6.65;80.44;98423.38;5094244;28;19924;-70
2022/01/17 07:27:51;;;;;;;;;;;;;;;-6.67;80.87;98431.84;5094071;28;20366;-70
2022/01/17 07:30:18;;;;;;;;;;;;;;;-6.71;81.31;98450.47;5094516;28;19999;-70
2022/01/17 07:32:44;;;;;;;;;;;;;;;-6.80;81.04;98459.09;5094196;28;19924;-70
2022/01/17 07:35:11;;;;;;;;;;;;;;;-6.77;80.79;98466.63;5093774;28;20316;-73
2022/01/17 07:37:38;;;;;;;;;;;;;;;-6.76;80.23;98475.03;5093923;28;19935;-69
2022/01/17 07:40:05;;;;;;;;;;;;;;;-6.85;80.21;98494.59;5093901;28;19924;-72
2022/01/17 07:42:32;;;;;;;;;;;;;;;-6.79;80.82;98488.56;5093744;28;19924;-71
2022/01/17 07:45:09;;;;;;;;;;;;;;;-6.88;80.39;98493.84;5093375;28;19928;-69
2022/01/17 07:47:42;;;;;;;;;;;;;;;-6.95;80.49;98510.81;5093641;28;20267;-73
2022/01/17 07:50:12;;;;;;;;;;;;;;;-6.90;80.03;98518.31;5093406;28;19928;-70
2022/01/17 07:52:39;;;;;;;;;;;;;;;-6.88;79.96;98524.19;5093802;28;19928;-66
2022/01/17 07:55:05;;;;;;;;;;;;;;;-6.92;79.68;98528.44;5093810;28;19932;-71
2022/01/17 07:57:32;;;;;;;;;;;;;;;-6.89;80.12;98532.63;5093677;28;19931;-66
2022/01/17 08:00:00;;;;;;;;;;;;;;;-6.97;79.71;98552.16;5093575;28;19928;-72
2022/01/17 08:02:27;;;;;;;;;;;;;;;-6.97;80.03;98565.63;5093403;28;20301;-71
2022/01/17 08:04:53;;;;;;;;;;;;;;;-6.97;79.93;98582.50;5093227;28;19961;-69
2022/01/17 08:07:20;;;;;;;;;;;;;;;-7.02;80.14;98601.09;5093489;28;20286;-72
2022/01/17 08:09:46;;;;;;;;;;;;;;;-7.00;79.71;98583.38;5093269;28;20267;-68
2022/01/17 08:12:13;;;;;;;;;;;;;;;-7.02;79.73;98596.06;5092484;28;19924;-73
2022/01/17 08:14:41;;;;;;;;;;;;;;;-7.03;80.08;98617.16;5092838;28;19958;-69
2022/01/17 08:17:09;;;;;;;;;;;;;;;-7.10;79.47;98615.59;5093739;28;19930;-69
2022/01/17 08:19:36;;;;;;;;;;;;;;;-7.10;79.76;98609.69;5093175;28;19931;-73
2022/01/17 08:22:03;;;;;;;;;;;;;;;-7.11;79.83;98624.03;5093022;28;20400;-72
2022/01/17 08:24:30;;;;;;;;;;;;;;;-7.09;79.58;98624.00;5093191;28;19931;-72
2022/01/17 08:26:57;;;;;;;;;;;;;;;-7.10;79.52;98650.16;5092792;28;19924;-70
2022/01/17 08:29:25;;;;;;;;;;;;;;;-7.12;78.95;98660.25;5093453;28;19928;-73
2022/01/17 08:31:52;;;;;;;;;;;;;;;-7.06;79.00;98674.53;5092862;28;20015;-71
2022/01/17 08:34:19;;;;;;;;;;;;;;;-7.10;78.77;98675.41;5092978;28;19931;-71
2022/01/17 08:36:46;;;;;;;;;;;;;;;-7.10;78.35;98686.34;5093171;28;19924;-72
2022/01/17 08:39:13;;;;;;;;;;;;;;;-7.10;79.38;98704.06;5092591;28;19932;-72
2022/01/17 08:41:42;;;;;;;;;;;;;;;-7.14;79.35;98707.50;5092851;28;19931;-72
2022/01/17 08:44:09;;;;;;;;;;;;;;;-7.09;78.34;98707.41;5092751;28;19962;-72
2022/01/17 08:46:35;;;;;;;;;;;;;;;-7.09;78.40;98702.34;5092682;28;19930;-72
2022/01/17 08:49:02;;;;;;;;;;;;;;;-7.03;78.06;98717.44;5092924;28;19928;-68
2022/01/17 08:51:30;;;;;;;;;;;;;;;-7.07;78.39;98720.88;5092745;28;19924;-72
2022/01/17 08:53:56;;;;;;;;;;;;;;;-7.05;77.85;98726.72;5092667;28;19924;-71
2022/01/17 08:56:23;;;;;;;;;;;;;;;-7.02;77.84;98734.25;5092340;28;20322;-71
2022/01/17 08:58:50;;;;;;;;;;;;;;;-7.02;78.18;98740.16;5092914;28;19971;-69
2022/01/17 09:01:16;;;;;;;;;;;;;;;-7.04;76.97;98748.63;5092682;28;19924;-71
2022/01/17 09:03:43;;;;;;;;;;;;;;;-7.01;76.96;98757.00;5092641;28;19928;-72
2022/01/17 09:06:09;;;;;;;;;;;;;;;-7.01;76.98;98761.22;5092478;28;19939;-74
2022/01/17 09:08:37;;;;;;;;;;;;;;;-6.97;77.40;98780.53;5092599;28;20286;-66
2022/01/17 09:11:04;;;;;;;;;;;;;;;-7.02;77.30;98793.25;5092434;28;19925;-69
2022/01/17 09:13:31;;;;;;;;;;;;;;;-7.07;77.15;98795.00;5092541;28;19954;-70
2022/01/17 09:15:57;;;;;;;;;;;;;;;-7.00;77.27;98790.69;5092541;28;19960;-69
2022/01/17 09:18:24;;;;;;;;;;;;;;;-6.99;76.56;98784.78;5092601;28;19924;-69
2022/01/17 09:20:51;;;;;;;;;;;;;;;-6.97;76.42;98804.97;5092656;28;20015;-69
2022/01/17 09:23:18;;;;;;;;;;;;;;;-6.97;76.34;98810.88;5092233;28;19924;-67
2022/01/17 09:25:46;;;;;;;;;;;;;;;-6.99;76.10;98822.69;5096259;28;19935;-73
2022/01/17 09:28:13;;;;;;;;;;;;;;;-7.02;76.47;98831.16;5096435;28;20405;-71
2022/01/17 09:30:40;;;;;;;;;;;;;;;-7.01;76.75;98845.50;5096761;28;20428;-68
2022/01/17 09:33:06;;;;;;;;;;;;;;;-7.03;76.68;98852.25;5099239;28;19924;-69
2022/01/17 09:35:34;;;;;;;;;;;;;;;-6.99;77.29;98859.78;5116741;28;19927;-70
2022/01/17 09:38:00;;;;;;;;;;;;;;;-7.05;76.73;98869.13;5116733;28;19932;-72
2022/01/17 09:40:27;;;;;;;;;;;;;;;-7.03;76.35;98880.06;5116533;28;20266;-72
2022/01/17 09:42:58;;;;;;;;;;;;;;;-7.03;76.52;98891.88;5116449;28;19935;-73
2022/01/17 09:45:24;;;;;;;;;;;;;;;-7.02;76.51;98903.63;5116501;28;19962;-72
2022/01/17 09:47:51;;;;;;;;;;;;;;;-6.98;76.40;98901.94;5116475;28;19931;-72
2022/01/17 09:50:20;;;;;;;;;;;;;;;-7.04;76.94;98907.88;5116267;28;19963;-73
2022/01/17 09:52:49;;;;;;;;;;;;;;;-7.13;77.64;98916.44;5116444;28;19928;-73
2022/01/17 09:55:20;;;;;;;;;;;;;;;-7.16;77.71;98926.59;5116204;28;19931;-71
2022/01/17 09:57:50;;;;;;;;;;;;;;;-7.19;77.68;98938.41;5116054;28;19932;-73
2022/01/17 10:00:20;;;;;;;;;;;;;;;-7.14;76.81;98944.25;5115588;28;20365;-72
2022/01/17 10:02:47;;;;;;;;;;;;;;;-7.04;76.58;98960.97;5116508;28;19934;-69
2022/01/17 10:05:15;;;;;;;;;;;;;;;-7.09;75.91;98970.31;5116337;28;19930;-70
2022/01/17 10:07:58;;;;;;;;;;;;;;;-7.07;76.26;98981.22;5116001;28;19924;-74
2022/01/17 10:10:50;;;;;;;;;;;;;;;-7.09;76.41;98988.00;5116253;28;20331;-73
2022/01/17 10:13:18;;;;;;;;;;;;;;;-7.16;75.45;98991.47;5091773;28;19934;-72
2022/01/17 10:16:03;;;;;;;;;;;;;;;-7.13;75.64;98989.72;5116519;28;19963;-68
2022/01/17 10:18:32;;;;;;;;;;;;;;;-7.09;76.19;99003.16;5116058;28;19924;-68
2022/01/17 10:21:03;;;;;;;;;;;;;;;-7.11;75.39;99010.78;5115930;28;19924;-66
2022/01/17 10:26:26;;;;;;;;;;;;;;;-7.07;75.38;99036.84;5112074;28;19924;-68
2022/01/17 10:29:16;;;;;;;;;;;;;;;-7.15;75.64;99039.47;5115128;28;19944;-70
2022/01/17 10:37:12;;;;;;;;;;;;;;;-6.94;74.95;99075.47;5114825;28;19976;-71
2022/01/17 10:39:51;;;;;;;;;;;;;;;-6.91;73.95;99067.84;5115531;28;19951;-69
2022/01/17 10:42:26;;;;;;;;;;;;;;;-6.99;74.42;99069.63;5115576;28;20366;-68
2022/01/17 10:44:52;;;;;;;;;;;;;;;-7.11;74.85;99065.56;5115229;28;20290;-66
2022/01/17 10:47:21;;;;;;;;;;;;;;;-6.95;74.25;99056.94;5115236;28;19934;-71
2022/01/17 10:49:49;;;;;;;;;;;;;;;-6.82;73.53;99065.22;5115193;28;19924;-69
2022/01/17 10:52:26;;;;;;;;;;;;;;;-6.76;73.91;99070.22;5115426;28;19928;-67
2022/01/17 10:54:55;;;;;;;;;;;;;;;-6.90;73.78;99074.59;5114974;28;19931;-70
2022/01/17 10:57:22;;;;;;;;;;;;;;;-7.03;74.45;99071.38;5114808;28;20309;-65
2022/01/17 10:59:51;;;;;;;;;;;;;;;-6.97;73.44;99078.88;5114965;28;19924;-69
2022/01/17 11:02:18;;;;;;;;;;;;;;;-6.91;73.56;99086.41;5115210;28;19970;-71
2022/01/17 11:04:49;;;;;;;;;;;;;;;-6.94;73.65;99099.06;5114962;28;19931;-67
2022/01/17 11:07:16;;;;;;;;;;;;;;;-6.91;73.73;99104.13;5115115;28;20305;-65
2022/01/17 11:09:43;;;;;;;;;;;;;;;-6.97;72.33;99108.38;5114742;28;19946;-70
2022/01/17 11:12:10;;;;;;;;;;;;;;;-6.93;73.00;99112.56;5114701;28;19931;-67
2022/01/17 11:14:37;;;;;;;;;;;;;;;-6.89;72.25;99125.13;5114607;28;20289;-73
2022/01/17 11:17:10;;;;;;;;;;;;;;;-6.86;72.30;99129.34;5114427;28;20354;-73
2022/01/17 11:22:22;;;;;;;;;;;;;;;-6.83;71.25;99135.22;5114408;28;20073;-65
2022/01/17 11:24:49;;;;;;;;;;;;;;;-6.82;71.52;99154.56;5114613;28;19931;-72
2022/01/17 11:27:15;;;;;;;;;;;;;;;-6.90;70.90;99161.41;5114556;28;20354;-68
2022/01/17 11:29:42;;;;;;;;;;;;;;;-6.84;71.88;99173.97;5114255;28;20305;-70
2022/01/17 11:32:09;;;;;;;;;;;;;;;-6.92;71.54;99167.34;5114431;28;19931;-73
2022/01/17 11:34:35;;;;;;;;;;;;;;;-6.95;71.08;99185.06;5114293;28;19924;-71
2022/01/17 11:37:02;;;;;;;;;;;;;;;-7.02;71.88;99192.69;5114307;28;19946;-68
2022/01/17 11:39:30;;;;;;;;;;;;;;;-6.98;71.36;99207.88;5114267;28;19953;-74
2022/01/17 11:41:57;;;;;;;;;;;;;;;-6.96;71.20;99213.72;5114227;28;19923;-66
2022/01/17 11:44:34;;;;;;;;;;;;;;;-7.00;71.65;99207.88;5113963;28;19924;-73
2022/01/17 11:47:01;;;;;;;;;;;;;;;-6.96;71.62;99221.31;5113528;28;20400;-73
2022/01/17 11:49:31;;;;;;;;;;;;;;;-6.86;71.30;99226.28;5113446;28;19924;-73
2022/01/17 11:51:58;;;;;;;;;;;;;;;-6.42;70.33;99231.75;5113919;28;19967;-69
2022/01/17 11:54:26;;;;;;;;;;;;;;;-6.74;70.22;99234.63;5113842;28;19923;-68
2022/01/17 11:56:56;;;;;;;;;;;;;;;-6.92;70.56;99241.50;5113831;28;19924;-70
2022/01/17 11:59:35;;;;;;;;;;;;;;;-6.98;71.51;99253.38;5114113;28;20002;-73
2022/01/17 12:02:15;;;;;;;;;;;;;;;-7.14;71.39;99247.56;5114114;28;19928;-72
2022/01/17 12:04:42;;;;;;;;;;;;;;;-7.19;72.26;99259.41;5113944;28;19931;-69
2022/01/17 12:07:08;;;;;;;;;;;;;;;-7.23;71.66;99273.75;5113667;28;20377;-69
2022/01/17 12:09:43;;;;;;;;;;;;;;;-7.26;72.23;99277.16;5113664;28;19923;-68
2022/01/17 12:12:15;;;;;;;;;;;;;;;-7.34;72.32;99281.41;5113567;28;19931;-64
2022/01/17 12:14:51;;;;;;;;;;;;;;;-7.34;72.69;99275.53;5113600;28;20288;-70
2022/01/17 12:17:31;;;;;;;;;;;;;;;-7.32;72.07;99301.59;5113386;28;19927;-68
2022/01/17 12:20:17;;;;;;;;;;;;;;;-7.32;72.43;99309.19;5113326;28;20462;-65
2022/01/17 12:22:52;;;;;;;;;;;;;;;-7.36;72.34;99298.28;5113505;28;20011;-71
2022/01/17 12:25:31;;;;;;;;;;;;;;;-7.36;72.90;99318.50;5113260;28;19924;-70
2022/01/17 12:28:13;;;;;;;;;;;;;;;-7.31;73.21;99303.31;5113602;28;20011;-73
2022/01/17 12:30:42;;;;;;;;;;;;;;;-7.32;73.09;99310.06;5112958;28;19931;-69
2022/01/17 12:33:12;;;;;;;;;;;;;;;-7.38;73.03;99314.28;5113297;28;19946;-70
2022/01/17 12:35:45;;;;;;;;;;;;;;;-7.36;72.37;99322.72;5113025;28;19923;-70
2022/01/17 12:38:15;;;;;;;;;;;;;;;-7.32;72.76;99347.09;5113321;28;19931;-71
2022/01/17 12:40:42;;;;;;;;;;;;;;;-7.36;73.14;99342.94;5113384;28;19924;-72
2022/01/17 12:43:11;;;;;;;;;;;;;;;-7.32;73.00;99350.50;5112985;28;19923;-70
2022/01/17 12:45:39;;;;;;;;;;;;;;;-7.30;72.67;99353.00;5112947;28;19923;-68
2022/01/17 12:48:08;;;;;;;;;;;;;;;-7.32;72.95;99369.84;5113081;28;20381;-70
2022/01/17 12:50:36;;;;;;;;;;;;;;;-7.36;73.32;99358.09;5112959;28;19939;-66
2022/01/17 12:53:04;;;;;;;;;;;;;;;-7.34;73.16;99359.75;5113341;28;19973;-72
2022/01/17 12:55:35;;;;;;;;;;;;;;;-7.40;73.01;99369.03;5112828;28;20377;-68
2022/01/17 12:58:02;;;;;;;;;;;;;;;-7.48;72.99;99374.13;5113182;28;19931;-68
2022/01/17 13:00:28;;;;;;;;;;;;;;;-7.46;73.62;99377.50;5113091;28;19924;-69
2022/01/17 13:02:56;;;;;;;;;;;;;;;-7.45;73.36;99387.59;5112967;28;19931;-70
2022/01/17 13:05:25;;;;;;;;;;;;;;;-7.44;73.51;99396.03;5113578;28;19924;-66
2022/01/17 13:07:52;;;;;;;;;;;;;;;-7.49;73.47;99412.88;5112901;28;19930;-70